createdAt,value
2018-09-21T00:00:23.589Z,18.90
2018-09-21T00:02:52.199Z,20.13
2018-09-21T00:05:20.781Z,20.80
2018-09-21T00:07:49.429Z,19.90
2018-09-21T00:10:18.149Z,20.40
2018-09-21T00:12:46.796Z,21.07
2018-09-21T00:15:15.459Z,20.30
2018-09-21T00:17:44.071Z,21.83
2018-09-21T00:20:13.149Z,21.10
2018-09-21T00:22:41.761Z,20.27
2018-09-21T00:25:10.449Z,20.63
2018-09-21T00:27:39.101Z,21.20
2018-09-21T00:30:07.824Z,20.13
2018-09-21T00:32:36.541Z,21.20
2018-09-21T00:35:05.237Z,21.37
2018-09-21T00:37:33.909Z,21.40
2018-09-21T00:40:02.617Z,21.57
2018-09-21T00:42:31.508Z,21.57
2018-09-21T00:45:00.224Z,22.30
2018-09-21T00:47:28.879Z,21.63
2018-09-21T00:49:57.527Z,22.30
2018-09-21T00:52:26.136Z,21.87
2018-09-21T00:54:54.736Z,22.40
2018-09-21T00:57:23.852Z,21.47
2018-09-21T00:59:52.473Z,21.80
2018-09-21T01:02:21.083Z,21.70
2018-09-21T01:04:49.703Z,21.83
2018-09-21T01:07:18.326Z,20.67
2018-09-21T01:09:46.933Z,21.57
2018-09-21T01:12:15.593Z,20.77
2018-09-21T01:14:44.218Z,21.90
2018-09-21T01:17:12.836Z,21.47
2018-09-21T01:19:41.536Z,21.73
2018-09-21T01:22:10.121Z,21.10
2018-09-21T01:24:38.713Z,22.57
2018-09-21T01:27:07.405Z,21.40
2018-09-21T01:29:36.038Z,22.27
2018-09-21T01:32:04.659Z,23.00
2018-09-21T01:34:33.283Z,22.53
2018-09-21T01:37:01.891Z,22.13
2018-09-21T01:39:30.528Z,21.23
2018-09-21T01:41:59.191Z,20.73
2018-09-21T01:44:27.869Z,20.83
2018-09-21T01:46:56.502Z,20.00
2018-09-21T01:49:25.193Z,21.60
2018-09-21T01:51:53.896Z,21.20
2018-09-21T01:54:22.555Z,22.13
2018-09-21T01:56:51.246Z,21.93
2018-09-21T01:59:19.903Z,21.33
2018-09-21T02:01:49.008Z,21.73
2018-09-21T02:04:17.806Z,22.03
2018-09-21T02:06:46.461Z,21.57
2018-09-21T02:09:15.103Z,21.53
2018-09-21T02:11:43.736Z,20.97
2018-09-21T02:14:12.376Z,21.43
2018-09-21T02:16:41.108Z,22.30
2018-09-21T02:19:10.959Z,19.63
2018-09-21T02:21:39.726Z,20.70
2018-09-21T02:24:08.373Z,20.60
2018-09-21T02:26:37.055Z,21.33
2018-09-21T02:29:05.773Z,22.93
2018-09-21T02:31:34.390Z,22.67
2018-09-21T02:34:03.020Z,20.60
2018-09-21T02:36:31.660Z,19.80
2018-09-21T02:39:00.320Z,20.90
2018-09-21T02:41:29.088Z,21.63
2018-09-21T02:43:57.741Z,22.00
2018-09-21T02:46:26.410Z,22.00
2018-09-21T02:48:55.141Z,22.50
2018-09-21T02:51:23.704Z,21.73
2018-09-21T02:53:52.376Z,23.07
2018-09-21T02:56:21.652Z,22.73
2018-09-21T02:58:50.729Z,23.80
2018-09-21T03:01:19.596Z,24.23
2018-09-21T03:03:48.373Z,22.97
2018-09-21T03:06:17.134Z,23.53
2018-09-21T03:08:45.828Z,26.23
2018-09-21T03:11:14.524Z,24.90
2018-09-21T03:13:43.234Z,24.63
2018-09-21T03:16:11.984Z,25.47
2018-09-21T03:18:40.656Z,25.17
2018-09-21T03:21:09.329Z,25.23
2018-09-21T03:23:37.986Z,24.03
2018-09-21T03:26:06.881Z,24.57
2018-09-21T03:28:35.634Z,23.30
2018-09-21T03:31:04.342Z,24.07
2018-09-21T03:33:33.065Z,24.90
2018-09-21T03:36:01.690Z,24.03
2018-09-21T03:38:30.959Z,22.00
2018-09-21T03:40:59.601Z,21.10
2018-09-21T03:43:28.258Z,21.83
2018-09-21T03:45:56.914Z,22.20
2018-09-21T03:48:26.533Z,23.50
2018-09-21T03:50:55.221Z,24.90
2018-09-21T03:53:23.828Z,23.13
2018-09-21T03:55:52.532Z,25.47
2018-09-21T03:58:21.224Z,21.67
2018-09-21T04:00:49.948Z,22.67
2018-09-21T04:03:18.661Z,25.10
2018-09-21T04:05:47.341Z,25.50
2018-09-21T04:08:16.034Z,26.13
2018-09-21T04:10:44.713Z,26.83
2018-09-21T04:13:13.355Z,27.30
2018-09-21T04:15:41.973Z,29.43
2018-09-21T04:18:10.628Z,25.77
2018-09-21T04:20:39.300Z,22.90
2018-09-21T04:23:08.121Z,22.57
2018-09-21T04:25:36.820Z,23.87
2018-09-21T04:28:05.635Z,23.30
2018-09-21T04:30:34.346Z,24.27
2018-09-21T04:33:03.135Z,23.60
2018-09-21T04:35:31.813Z,23.53
2018-09-21T04:38:00.453Z,23.67
2018-09-21T04:40:29.106Z,23.20
2018-09-21T04:42:57.750Z,21.90
2018-09-21T04:45:26.400Z,23.33
2018-09-21T04:47:55.140Z,24.63
2018-09-21T04:50:23.865Z,24.13
2018-09-21T04:52:52.513Z,24.90
2018-09-21T04:55:21.693Z,24.97
2018-09-21T04:57:50.377Z,24.20
2018-09-21T05:00:19.034Z,24.13
2018-09-21T05:02:47.758Z,23.83
2018-09-21T05:05:16.498Z,24.20
2018-09-21T05:07:45.253Z,25.27
2018-09-21T05:10:14.001Z,25.57
2018-09-21T05:12:42.767Z,21.80
2018-09-21T05:15:11.505Z,21.77
2018-09-21T05:17:40.287Z,32.87
2018-09-21T05:20:09.163Z,27.10
2018-09-21T05:22:37.793Z,24.67
2018-09-21T05:25:07.578Z,25.53
2018-09-21T05:27:36.280Z,24.77
2018-09-21T05:30:05.214Z,23.70
2018-09-21T05:32:34.030Z,22.73
2018-09-21T05:35:02.847Z,23.20
2018-09-21T05:37:31.613Z,22.60
2018-09-21T05:40:00.302Z,28.03
2018-09-21T05:42:28.942Z,22.17
2018-09-21T05:44:57.668Z,23.90
2018-09-21T05:47:26.353Z,25.40
2018-09-21T05:49:55.330Z,22.87
2018-09-21T05:52:23.975Z,21.00
2018-09-21T05:54:52.601Z,20.57
2018-09-21T05:57:21.286Z,20.60
2018-09-21T05:59:50.025Z,18.73
2018-09-21T06:02:18.806Z,18.60
2018-09-21T06:04:51.371Z,17.97
2018-09-21T06:07:20.089Z,18.03
2018-09-21T06:09:48.806Z,17.97
2018-09-21T06:12:17.422Z,16.33
2018-09-21T06:14:46.001Z,26.13
2018-09-21T06:17:14.601Z,21.10
2018-09-21T06:19:43.244Z,18.50
2018-09-21T06:22:12.054Z,18.33
2018-09-21T06:24:40.764Z,18.07
2018-09-21T06:27:09.446Z,16.97
2018-09-21T06:29:38.133Z,16.47
2018-09-21T06:32:06.834Z,17.10
2018-09-21T06:34:35.435Z,16.30
2018-09-21T06:37:04.066Z,16.13
2018-09-21T06:39:32.822Z,16.03
2018-09-21T06:42:01.570Z,15.67
2018-09-21T06:44:30.316Z,15.57
2018-09-21T06:46:59.181Z,15.00
2018-09-21T06:49:27.961Z,14.75
2018-09-21T06:51:56.587Z,15.13
2018-09-21T06:54:25.229Z,14.58
2018-09-21T06:56:53.828Z,15.03
2018-09-21T06:59:22.536Z,15.95
2018-09-21T07:01:51.191Z,16.05
2018-09-21T07:04:19.740Z,14.98
2018-09-21T07:06:48.436Z,14.55
2018-09-21T07:09:17.081Z,15.50
2018-09-21T07:11:45.745Z,15.03
2018-09-21T07:14:14.409Z,15.25
2018-09-21T07:16:43.003Z,15.72
2018-09-21T07:19:11.610Z,14.73
2018-09-21T07:21:40.233Z,14.35
2018-09-21T07:24:08.873Z,13.78
2018-09-21T07:26:37.456Z,14.28
2018-09-21T07:29:06.118Z,15.83
2018-09-21T07:31:34.703Z,17.57
2018-09-21T07:34:03.304Z,16.25
2018-09-21T07:36:31.984Z,15.45
2018-09-21T07:39:00.659Z,17.32
2018-09-21T07:41:29.601Z,17.70
2018-09-21T07:43:58.209Z,15.28
2018-09-21T07:46:26.841Z,14.20
2018-09-21T07:48:55.478Z,14.15
2018-09-21T07:51:24.112Z,15.28
2018-09-21T07:53:52.801Z,14.95
2018-09-21T07:56:21.556Z,15.10
2018-09-21T07:58:50.216Z,14.83
2018-09-21T08:01:18.833Z,15.40
2018-09-21T08:03:47.479Z,14.50
2018-09-21T08:06:16.216Z,15.88
2018-09-21T08:08:45.015Z,13.45
2018-09-21T08:11:13.669Z,14.18
2018-09-21T08:13:42.344Z,14.23
2018-09-21T08:16:11.019Z,12.98
2018-09-21T08:18:39.983Z,13.72
2018-09-21T08:21:08.645Z,13.88
2018-09-21T08:23:37.276Z,14.00
2018-09-21T08:26:05.986Z,12.10
2018-09-21T08:28:34.621Z,12.10
2018-09-21T08:31:03.198Z,10.85
2018-09-21T08:33:31.766Z,10.58
2018-09-21T08:36:00.689Z,9.68
2018-09-21T08:38:29.303Z,9.13
2018-09-21T08:40:57.941Z,9.43
2018-09-21T08:43:26.554Z,9.33
2018-09-21T08:45:55.267Z,8.65
2018-09-21T08:48:23.911Z,8.63
2018-09-21T08:50:52.571Z,7.72
2018-09-21T08:53:21.252Z,8.28
2018-09-21T08:55:49.871Z,7.72
2018-09-21T08:58:18.476Z,8.05
2018-09-21T09:00:48.124Z,7.90
2018-09-21T09:03:16.819Z,7.67
2018-09-21T09:05:51.433Z,8.13
2018-09-21T09:08:20.984Z,7.90
2018-09-21T09:10:49.724Z,7.58
2018-09-21T09:13:19.131Z,7.03
2018-09-21T09:15:48.469Z,6.85
2018-09-21T09:18:17.136Z,7.22
2018-09-21T09:20:45.866Z,7.45
2018-09-21T09:23:14.543Z,7.60
2018-09-21T09:25:43.211Z,7.53
2018-09-21T09:28:11.870Z,7.15
2018-09-21T09:30:40.589Z,9.13
2018-09-21T09:33:09.254Z,7.28
2018-09-21T09:35:37.894Z,7.17
2018-09-21T09:38:06.866Z,6.25
2018-09-21T09:40:35.496Z,6.83
2018-09-21T09:43:04.275Z,7.03
2018-09-21T09:45:32.851Z,7.20
2018-09-21T09:48:01.463Z,7.50
2018-09-21T09:50:30.147Z,7.70
2018-09-21T09:52:58.784Z,7.22
2018-09-21T09:55:27.385Z,7.20
2018-09-21T09:57:56.018Z,6.97
2018-09-21T10:00:30.112Z,6.58
2018-09-21T10:02:58.864Z,6.83
2018-09-21T10:05:27.594Z,7.03
2018-09-21T10:07:56.258Z,6.78
2018-09-21T10:10:25.530Z,6.95
2018-09-21T10:12:54.096Z,6.67
2018-09-21T10:15:22.762Z,7.08
2018-09-21T10:17:51.396Z,6.55
2018-09-21T10:20:20.132Z,6.97
2018-09-21T10:22:48.794Z,6.42
2018-09-21T10:25:18.244Z,6.53
2018-09-21T10:27:47.070Z,6.00
2018-09-21T10:30:15.644Z,6.55
2018-09-21T10:32:44.276Z,6.58
2018-09-21T10:35:13.035Z,5.95
2018-09-21T10:37:41.673Z,6.87
2018-09-21T10:40:10.462Z,6.25
2018-09-21T10:42:39.150Z,6.85
2018-09-21T10:45:08.024Z,6.92
2018-09-21T10:47:36.637Z,6.40
2018-09-21T10:50:05.430Z,9.60
2018-09-21T10:52:34.190Z,5.83
2018-09-21T10:55:02.925Z,5.17
2018-09-21T10:57:31.555Z,5.78
2018-09-21T11:00:00.349Z,5.80
2018-09-21T11:02:29.011Z,5.42
2018-09-21T11:04:57.664Z,5.33
2018-09-21T11:07:26.436Z,5.12
2018-09-21T11:09:55.141Z,5.17
2018-09-21T11:12:23.894Z,5.10
2018-09-21T11:14:52.692Z,5.28
2018-09-21T11:17:21.403Z,5.28
2018-09-21T11:19:50.096Z,5.25
2018-09-21T11:22:18.775Z,5.65
2018-09-21T11:24:48.486Z,5.45
2018-09-21T11:27:17.202Z,5.87
2018-09-21T11:29:46.027Z,5.00
2018-09-21T11:32:14.701Z,4.87
2018-09-21T11:34:43.601Z,5.92
2018-09-21T11:37:12.321Z,5.40
2018-09-21T11:39:41.160Z,5.22
2018-09-21T11:42:09.831Z,5.50
2018-09-21T11:44:38.466Z,5.50
2018-09-21T11:47:07.162Z,5.20
2018-09-21T11:49:35.808Z,5.17
2018-09-21T11:52:04.553Z,4.97
2018-09-21T11:54:33.211Z,5.12
2018-09-21T11:57:01.902Z,4.92
2018-09-21T11:59:30.899Z,4.62
2018-09-21T12:01:59.737Z,4.70
2018-09-21T12:04:28.556Z,4.95
2018-09-21T12:06:57.265Z,4.62
2018-09-21T12:09:26.006Z,4.87
2018-09-21T12:11:54.888Z,4.80
2018-09-21T12:14:23.727Z,4.37
2018-09-21T12:16:53.585Z,3.40
2018-09-21T12:19:22.357Z,3.90
2018-09-21T12:21:51.216Z,4.00
2018-09-21T12:24:20.021Z,4.05
2018-09-21T12:26:48.699Z,4.37
2018-09-21T12:29:17.597Z,3.37
2018-09-21T12:31:46.384Z,3.40
2018-09-21T12:34:15.112Z,3.65
2018-09-21T12:36:44.424Z,3.77
2018-09-21T12:39:14.180Z,3.58
2018-09-21T12:41:43.306Z,3.67
2018-09-21T12:44:15.850Z,3.37
2018-09-21T12:46:44.669Z,3.05
2018-09-21T12:49:13.446Z,3.35
2018-09-21T12:51:42.235Z,3.52
2018-09-21T12:54:10.935Z,3.30
2018-09-21T12:56:40.481Z,3.30
2018-09-21T12:59:09.388Z,3.02
2018-09-21T13:01:38.189Z,3.80
2018-09-21T13:04:06.987Z,3.83
2018-09-21T13:06:36.355Z,3.72
2018-09-21T13:09:06.564Z,3.58
2018-09-21T13:11:35.939Z,3.72
2018-09-21T13:14:05.227Z,4.10
2018-09-21T13:16:33.867Z,3.87
2018-09-21T13:19:02.594Z,4.03
2018-09-21T13:21:31.837Z,3.87
2018-09-21T13:24:00.539Z,3.87
2018-09-21T13:26:29.256Z,3.77
2018-09-21T13:28:58.056Z,4.08
2018-09-21T13:31:26.669Z,3.90
2018-09-21T13:33:55.772Z,4.00
2018-09-21T13:36:24.478Z,3.98
2018-09-21T13:38:53.154Z,4.03
2018-09-21T13:41:22.119Z,4.10
2018-09-21T13:43:50.816Z,4.10
2018-09-21T13:46:19.529Z,3.72
2018-09-21T13:48:48.244Z,3.98
2018-09-21T13:51:17.614Z,3.35
2018-09-21T13:53:46.327Z,3.47
2018-09-21T13:56:15.082Z,3.65
2018-09-21T13:58:43.766Z,3.72
2018-09-21T14:01:12.437Z,4.08
2018-09-21T14:03:41.245Z,4.78
2018-09-21T14:06:10.661Z,4.80
2018-09-21T14:08:39.324Z,4.60
2018-09-21T14:11:07.929Z,5.12
2018-09-21T14:13:36.656Z,5.12
2018-09-21T14:16:06.250Z,5.03
2018-09-21T14:18:34.961Z,5.33
2018-09-21T14:21:04.157Z,5.70
2018-09-21T14:23:32.878Z,5.17
2018-09-21T14:26:01.667Z,4.97
2018-09-21T14:28:31.558Z,5.12
2018-09-21T14:31:00.365Z,5.33
2018-09-21T14:33:29.930Z,5.53
2018-09-21T14:35:59.009Z,5.25
2018-09-21T14:38:28.552Z,4.67
2018-09-21T14:40:57.299Z,5.90
2018-09-21T14:43:26.929Z,5.87
2018-09-21T14:45:55.752Z,5.90
2018-09-21T14:48:24.422Z,5.90
2018-09-21T14:50:53.177Z,5.28
2018-09-21T14:53:21.817Z,5.22
2018-09-21T14:55:50.527Z,5.08
2018-09-21T14:58:19.781Z,5.12
2018-09-21T15:00:49.037Z,5.97
2018-09-21T15:03:17.669Z,5.60
2018-09-21T15:05:46.438Z,5.33
2018-09-21T15:08:15.135Z,6.03
2018-09-21T15:10:43.881Z,5.67
2018-09-21T15:13:12.598Z,5.35
2018-09-21T15:15:41.229Z,6.33
2018-09-21T15:18:09.997Z,6.30
2018-09-21T15:20:38.727Z,5.53
2018-09-21T15:23:07.430Z,5.87
2018-09-21T15:25:36.119Z,6.60
2018-09-21T15:28:04.816Z,6.28
2018-09-21T15:30:33.512Z,6.30
2018-09-21T15:33:02.244Z,5.67
2018-09-21T15:35:30.933Z,6.10
2018-09-21T15:37:59.604Z,5.72
2018-09-21T15:40:28.315Z,5.85
2018-09-21T15:42:57.647Z,5.55
2018-09-21T15:45:26.368Z,6.45
2018-09-21T15:47:55.685Z,5.70
2018-09-21T15:50:24.365Z,5.75
2018-09-21T15:52:53.182Z,6.42
2018-09-21T15:55:22.322Z,7.00
2018-09-21T15:57:51.143Z,6.33
2018-09-21T16:00:19.812Z,6.22
2018-09-21T16:02:48.522Z,9.48
2018-09-21T16:05:17.261Z,9.25
2018-09-21T16:07:46.005Z,9.05
2018-09-21T16:10:14.743Z,7.92
2018-09-21T16:12:43.510Z,6.83
2018-09-21T16:15:12.241Z,12.50
2018-09-21T16:17:41.072Z,8.70
2018-09-21T16:20:09.817Z,9.50
2018-09-21T16:22:38.552Z,6.62
2018-09-21T16:25:07.342Z,7.72
2018-09-21T16:27:36.052Z,8.80
2018-09-21T16:30:07.471Z,9.28
2018-09-21T16:32:36.180Z,8.03
2018-09-21T16:35:05.509Z,7.28
2018-09-21T16:37:34.441Z,7.80
2018-09-21T16:40:03.473Z,7.10
2018-09-21T16:42:33.290Z,7.28
2018-09-21T16:45:02.155Z,7.28
2018-09-21T16:47:31.256Z,8.70
2018-09-21T16:49:59.963Z,6.65
2018-09-21T16:52:29.107Z,6.47
2018-09-21T16:54:57.796Z,7.25
2018-09-21T16:57:26.452Z,7.12
2018-09-21T16:59:55.142Z,6.83
2018-09-21T17:02:24.170Z,12.35
2018-09-21T17:04:53.055Z,12.65
2018-09-21T17:07:21.646Z,8.53
2018-09-21T17:09:50.374Z,6.45
2018-09-21T17:12:19.315Z,7.03
2018-09-21T17:14:48.031Z,6.58
2018-09-21T17:17:17.654Z,6.92
2018-09-21T17:19:46.371Z,6.95
2018-09-21T17:22:15.122Z,7.00
2018-09-21T17:24:43.949Z,6.65
2018-09-21T17:27:12.721Z,6.90
2018-09-21T17:29:41.449Z,7.25
2018-09-21T17:32:10.243Z,6.85
2018-09-21T17:34:39.042Z,6.95
2018-09-21T17:37:07.846Z,7.37
2018-09-21T17:39:36.598Z,7.37
2018-09-21T17:42:05.779Z,7.60
2018-09-21T17:44:35.506Z,7.57
2018-09-21T17:47:04.242Z,7.92
2018-09-21T17:49:33.134Z,7.80
2018-09-21T17:52:02.365Z,7.53
2018-09-21T17:54:31.662Z,7.90
2018-09-21T17:57:01.397Z,7.47
2018-09-21T17:59:30.224Z,8.20
2018-09-21T18:01:59.224Z,7.83
2018-09-21T18:04:28.058Z,7.53
2018-09-21T18:06:57.234Z,8.17
2018-09-21T18:09:26.204Z,8.58
2018-09-21T18:11:55.009Z,8.28
2018-09-21T18:14:24.001Z,8.57
2018-09-21T18:16:52.762Z,8.50
2018-09-21T18:19:21.476Z,9.00
2018-09-21T18:21:50.174Z,9.03
2018-09-21T18:24:19.788Z,9.27
2018-09-21T18:26:48.557Z,9.70
2018-09-21T18:29:17.299Z,9.58
2018-09-21T18:31:46.140Z,9.63
2018-09-21T18:34:15.572Z,9.77
2018-09-21T18:36:44.369Z,9.47
2018-09-21T18:39:13.175Z,9.90
2018-09-21T18:41:41.907Z,10.57
2018-09-21T18:44:10.643Z,9.73
2018-09-21T18:46:39.954Z,9.90
2018-09-21T18:49:08.699Z,9.60
2018-09-21T18:51:37.449Z,10.33
2018-09-21T18:54:07.306Z,9.48
2018-09-21T18:56:36.273Z,10.87
2018-09-21T18:59:05.274Z,9.93
2018-09-21T19:01:34.705Z,10.30
2018-09-21T19:04:04.190Z,9.47
2018-09-21T19:06:33.292Z,9.85
2018-09-21T19:09:02.052Z,10.63
2018-09-21T19:11:30.816Z,10.80
2018-09-21T19:13:59.629Z,10.23
2018-09-21T19:16:28.774Z,10.73
2018-09-21T19:18:57.604Z,9.97
2018-09-21T19:21:26.493Z,10.50
2018-09-21T19:23:55.238Z,10.53
2018-09-21T19:26:25.358Z,11.20
2018-09-21T19:28:54.526Z,11.80
2018-09-21T19:31:23.369Z,11.73
2018-09-21T19:33:52.905Z,12.17
2018-09-21T19:36:21.721Z,11.60
2018-09-21T19:38:50.703Z,11.93
2018-09-21T19:41:19.954Z,12.03
2018-09-21T19:43:48.957Z,11.80
2018-09-21T19:46:17.771Z,12.00
2018-09-21T19:48:46.914Z,11.97
2018-09-21T19:51:15.750Z,11.73
2018-09-21T19:53:45.144Z,12.37
2018-09-21T19:56:14.042Z,12.10
2018-09-21T19:58:46.823Z,11.90
2018-09-21T20:01:15.678Z,11.80
2018-09-21T20:03:44.867Z,11.93
2018-09-21T20:06:13.719Z,11.97
2018-09-21T20:08:42.958Z,12.63
2018-09-21T20:11:13.388Z,13.07
2018-09-21T20:13:43.182Z,12.13
2018-09-21T20:16:12.273Z,13.17
2018-09-21T20:18:41.112Z,12.00
2018-09-21T20:21:10.943Z,12.63
2018-09-21T20:23:39.760Z,13.10
2018-09-21T20:26:08.996Z,12.47
2018-09-21T20:28:38.276Z,12.10
2018-09-21T20:31:12.651Z,12.40
2018-09-21T20:33:42.676Z,12.47
2018-09-21T20:36:11.454Z,12.50
2018-09-21T20:38:41.377Z,12.23
2018-09-21T20:41:10.126Z,12.47
2018-09-21T20:43:39.918Z,12.73
2018-09-21T20:46:09.149Z,13.40
2018-09-21T20:48:37.983Z,12.57
2018-09-21T20:51:06.764Z,12.70
2018-09-21T20:53:36.274Z,12.50
2018-09-21T20:56:05.124Z,12.70
2018-09-21T20:58:33.876Z,13.67
2018-09-21T21:01:03.001Z,12.67
2018-09-21T21:03:31.846Z,12.90
2018-09-21T21:06:00.582Z,12.87
2018-09-21T21:08:29.315Z,12.73
2018-09-21T21:11:02.065Z,13.17
2018-09-21T21:13:31.592Z,12.30
2018-09-21T21:16:01.429Z,12.93
2018-09-21T21:18:30.243Z,13.30
2018-09-21T21:20:59.055Z,12.90
2018-09-21T21:23:27.769Z,14.07
2018-09-21T21:25:56.532Z,13.10
2018-09-21T21:28:25.354Z,13.23
2018-09-21T21:30:54.095Z,13.37
2018-09-21T21:33:22.808Z,13.37
2018-09-21T21:35:51.616Z,13.03
2018-09-21T21:38:21.024Z,13.50
2018-09-21T21:40:49.758Z,13.77
2018-09-21T21:43:18.528Z,13.63
2018-09-21T21:45:47.336Z,14.50
2018-09-21T21:48:16.051Z,14.10
2018-09-21T21:50:44.718Z,14.43
2018-09-21T21:53:13.356Z,13.90
2018-09-21T21:55:42.111Z,13.07
2018-09-21T21:58:10.851Z,14.33
2018-09-21T22:00:45.491Z,13.90
2018-09-21T22:03:14.243Z,14.77
2018-09-21T22:05:42.979Z,13.60
2018-09-21T22:08:11.809Z,14.53
2018-09-21T22:10:40.787Z,13.03
2018-09-21T22:13:15.038Z,13.77
2018-09-21T22:15:43.882Z,13.33
2018-09-21T22:18:12.701Z,13.60
2018-09-21T22:20:41.501Z,12.80
2018-09-21T22:23:10.424Z,14.27
2018-09-21T22:25:39.551Z,13.97
2018-09-21T22:28:08.439Z,14.03
2018-09-21T22:30:37.279Z,13.97
2018-09-21T22:33:06.874Z,13.80
2018-09-21T22:35:35.663Z,14.57
2018-09-21T22:38:04.576Z,15.60
2018-09-21T22:40:33.393Z,14.70
2018-09-21T22:43:02.178Z,14.33
2018-09-21T22:45:30.928Z,15.00
2018-09-21T22:47:59.696Z,15.00
2018-09-21T22:50:28.445Z,15.43
2018-09-21T22:52:57.161Z,15.50
2018-09-21T22:55:25.965Z,14.93
2018-09-21T22:57:54.701Z,14.80
2018-09-21T23:00:23.506Z,14.37
2018-09-21T23:02:52.333Z,13.77
2018-09-21T23:05:21.066Z,13.90
2018-09-21T23:07:49.809Z,14.47
2018-09-21T23:10:18.558Z,14.80
2018-09-21T23:12:47.333Z,14.63
2018-09-21T23:15:16.313Z,14.70
2018-09-21T23:17:45.097Z,15.77
2018-09-21T23:20:13.856Z,15.37
2018-09-21T23:22:42.793Z,14.93
2018-09-21T23:25:11.676Z,15.60
2018-09-21T23:27:40.389Z,16.13
2018-09-21T23:30:09.166Z,15.90
2018-09-21T23:32:37.909Z,16.53
2018-09-21T23:35:06.803Z,16.73
2018-09-21T23:37:35.522Z,16.73
2018-09-21T23:40:04.431Z,17.00
2018-09-21T23:42:33.078Z,17.57
2018-09-21T23:45:01.721Z,17.37
2018-09-21T23:47:30.425Z,17.73
2018-09-21T23:49:59.080Z,16.97
2018-09-21T23:52:27.894Z,18.03
2018-09-21T23:54:56.609Z,16.37
2018-09-21T23:57:26.346Z,16.70
2018-09-21T23:59:55.066Z,17.60
